Pagrindinis puslapis
METAR-TAF:

METAR-TAF

Oro uostai :

Verona, Italija

platuma: 45-23N, ilguma: 010-52E, Aukštis: 67 m

Dabartinis oras

Ataskaita buvo paskelbta 10 minutes, ne 13:50 UTC
Vėjas 3 kt iš Pietvakarių, svyruoja nuo Pietų/Pietryčių ir Vakarų
Temperatūra 21°C
Drėgmė 28%
Slėgis 1030 hPa
Matomumas 10 km arba daugiau
nėra debesų žemiau 1500 m ir nėra kamuolinių lietaus debesų

METAR: LIPX 251350Z 22003KT 160V260 CAVOK 21/02 Q1030

Laikas: 15:00 (14:00 UTC)

Prognozė

Ataskaita buvo paskelbta 3 valandos ir 0 minutes, ne 11:00 UTC
Prognozė galioja nuo 25 metu 12 UTC su 25 metu 21 UTC
Vėjas 5 kt nuo kintamojo kryptimis
Matomumas 10 km arba daugiau
nėra debesų žemiau 1500 m ir nėra kamuolinių lietaus debesų

TAF: LIPX 251100Z 2512/2521 VRB05KT CAVOK

Orai ataskaitas ir orų prognozės (METAR, TAF).

turimą stotys yra geltonos ir raudonos taškus žemėlapyje.

Perkelti pele per norėdami pamatyti stoties vardą.

Tada spustelėkite, norėdami matyti oro stebėjimo ir prognozės.

Norėdami pakeisti žemėlapį: spustelėkite ant žalios mygtukų su juodo kryžiaus žemyn,; žalią mygtuką su brūkšneliu, jei norite nutolinti; arba žalių rodyklių gretimoms žemėlapius.


METAR-TAF: